createdAt,value
2023-01-07T00:01:13.544Z,100755.97
2023-01-07T00:03:41.363Z,100758.69
2023-01-07T00:06:09.151Z,100755.13
2023-01-07T00:08:36.939Z,100751.53
2023-01-07T00:11:04.709Z,100756.97
2023-01-07T00:13:32.447Z,100754.44
2023-01-07T00:16:00.495Z,100757.34
2023-01-07T00:18:28.257Z,100755.47
2023-01-07T00:20:56.041Z,100752.94
2023-01-07T00:23:24.530Z,100760.06
2023-01-07T00:25:52.312Z,100752.94
2023-01-07T00:28:20.174Z,100749.38
2023-01-07T00:30:47.935Z,100748.69
2023-01-07T00:33:16.795Z,100753.28
2023-01-07T00:35:45.161Z,100743.41
2023-01-07T00:38:12.919Z,100746.13
2023-01-07T00:40:40.715Z,100755.16
2023-01-07T00:43:08.479Z,100748.22
2023-01-07T00:45:36.335Z,100750.72
2023-01-07T00:48:04.287Z,100749.06
2023-01-07T00:50:32.085Z,100742.75
2023-01-07T00:53:00.020Z,100745.47
2023-01-07T00:55:27.839Z,100741.88
2023-01-07T00:57:55.855Z,100741.03
2023-01-07T01:00:23.661Z,100741.03
2023-01-07T01:02:51.482Z,100747.16
2023-01-07T01:05:19.372Z,100749.91
2023-01-07T01:07:47.124Z,100754.31
2023-01-07T01:10:14.931Z,100747.16
2023-01-07T01:12:42.720Z,100747.84
2023-01-07T01:15:10.517Z,100746.13
2023-01-07T01:17:38.400Z,100750.56
2023-01-07T01:20:06.232Z,100746.97
2023-01-07T01:22:33.998Z,100745.28
2023-01-07T01:25:01.891Z,100749.91
2023-01-07T01:27:29.860Z,100749.06
2023-01-07T01:29:57.769Z,100751.41
2023-01-07T01:32:25.526Z,100756.66
2023-01-07T01:34:53.410Z,100751.22
2023-01-07T01:37:21.202Z,100746.81
2023-01-07T01:39:49.046Z,100737.78
2023-01-07T01:42:16.820Z,100738.63
2023-01-07T01:44:47.700Z,100742.38
2023-01-07T01:47:15.663Z,100742.38
2023-01-07T01:49:43.452Z,100744.25
2023-01-07T01:52:11.260Z,100749.53
2023-01-07T01:54:39.135Z,100727.88
2023-01-07T01:57:06.919Z,100731.47
2023-01-07T01:59:34.680Z,100727.03
2023-01-07T02:05:11.745Z,100724.22
2023-01-07T02:07:39.506Z,100718.75
2023-01-07T02:10:07.410Z,100725.41
2023-01-07T02:12:35.149Z,100713.66
2023-01-07T02:15:02.960Z,100718.44
2023-01-07T02:17:30.923Z,100724.06
2023-01-07T02:19:58.712Z,100721.53
2023-01-07T02:22:26.467Z,100718.97
2023-01-07T02:24:54.357Z,100713.88
2023-01-07T02:27:22.173Z,100709.13
2023-01-07T02:29:49.961Z,100714.56
2023-01-07T02:32:17.768Z,100708.25
2023-01-07T02:34:45.532Z,100699.72
2023-01-07T02:37:13.473Z,100697.00
2023-01-07T02:39:41.273Z,100691.53
2023-01-07T02:42:09.021Z,100686.25
2023-01-07T02:44:36.870Z,100689.66
2023-01-07T02:47:04.673Z,100688.63
2023-01-07T02:49:32.400Z,100691.34
2023-01-07T02:52:00.161Z,100686.09
2023-01-07T02:54:27.921Z,100687.09
2023-01-07T02:56:55.714Z,100684.59
2023-01-07T02:59:23.473Z,100688.81
2023-01-07T03:01:51.373Z,100684.22
2023-01-07T03:04:19.346Z,100677.72
2023-01-07T03:06:47.212Z,100684.00
2023-01-07T03:09:15.066Z,100678.75
2023-01-07T03:11:42.866Z,100682.16
2023-01-07T03:14:10.820Z,100680.44
2023-01-07T03:16:38.894Z,100676.03
2023-01-07T03:19:06.713Z,100685.91
2023-01-07T03:21:34.962Z,100689.47
2023-01-07T03:24:02.848Z,100684.88
2023-01-07T03:26:30.726Z,100686.09
2023-01-07T03:28:58.915Z,100684.22
2023-01-07T03:31:26.792Z,100684.88
2023-01-07T03:33:54.608Z,100687.78
2023-01-07T03:36:22.501Z,100686.94
2023-01-07T03:38:50.273Z,100673.84
2023-01-07T03:41:31.933Z,100676.94
2023-01-07T03:43:59.739Z,100671.84
2023-01-07T03:46:27.497Z,100668.44
2023-01-07T03:48:55.285Z,100666.72
2023-01-07T03:51:23.114Z,100663.84
2023-01-07T03:53:50.916Z,100661.13
2023-01-07T03:56:18.711Z,100656.72
2023-01-07T03:58:46.455Z,100664.00
2023-01-07T04:01:14.225Z,100657.06
2023-01-07T04:03:42.109Z,100662.31
2023-01-07T04:06:09.840Z,100647.84
2023-01-07T04:08:37.748Z,100652.25
2023-01-07T04:11:05.473Z,100651.41
2023-01-07T04:13:33.274Z,100645.97
2023-01-07T04:16:01.014Z,100649.53
2023-01-07T04:18:28.785Z,100635.06
2023-01-07T04:20:56.518Z,100639.47
2023-01-07T04:23:24.339Z,100635.91
2023-01-07T04:25:52.144Z,100633.19
2023-01-07T04:28:19.964Z,100634.91
2023-01-07T04:30:47.888Z,100638.47
2023-01-07T04:33:15.717Z,100632.34
2023-01-07T04:35:43.506Z,100630.28
2023-01-07T04:38:11.986Z,100635.91
2023-01-07T04:40:39.766Z,100639.31
2023-01-07T04:43:07.588Z,100635.75
2023-01-07T04:45:35.308Z,100629.44
2023-01-07T04:48:03.079Z,100630.28
2023-01-07T04:50:30.942Z,100628.41
2023-01-07T04:52:58.698Z,100621.91
2023-01-07T04:55:26.540Z,100626.16
2023-01-07T04:57:54.285Z,100622.78
2023-01-07T05:00:22.547Z,100626.38
2023-01-07T05:02:50.318Z,100624.47
2023-01-07T05:05:18.034Z,100616.31
2023-01-07T05:07:46.344Z,100609.81
2023-01-07T05:10:14.089Z,100621.59
2023-01-07T05:12:41.876Z,100614.41
2023-01-07T05:15:09.631Z,100613.41
2023-01-07T05:17:37.466Z,100612.53
2023-01-07T05:20:05.242Z,100614.41
2023-01-07T05:22:33.015Z,100611.91
2023-01-07T05:25:00.799Z,100610.00
2023-01-07T05:27:28.695Z,100610.00
2023-01-07T05:29:56.417Z,100602.38
2023-01-07T05:32:24.176Z,100602.56
2023-01-07T05:34:51.930Z,100605.00
2023-01-07T05:37:19.717Z,100608.94
2023-01-07T05:39:47.526Z,100607.41
2023-01-07T05:42:15.304Z,100600.25
2023-01-07T05:44:43.483Z,100607.41
2023-01-07T05:47:11.387Z,100606.19
2023-01-07T05:49:39.326Z,100600.75
2023-01-07T05:52:07.143Z,100597.47
2023-01-07T05:54:34.892Z,100596.00
2023-01-07T05:57:02.635Z,100604.63
2023-01-07T05:59:30.377Z,100595.16
2023-01-07T06:01:58.184Z,100594.03
2023-01-07T06:04:26.033Z,100594.16
2023-01-07T06:06:53.815Z,100597.66
2023-01-07T06:09:22.515Z,100598.59
2023-01-07T06:11:50.502Z,100592.41
2023-01-07T06:14:18.267Z,100597.63
2023-01-07T06:16:46.088Z,100587.38
2023-01-07T06:19:13.840Z,100590.47
2023-01-07T06:21:41.664Z,100589.06
2023-01-07T06:24:09.427Z,100601.56
2023-01-07T06:26:37.200Z,100605.25
2023-01-07T06:29:05.195Z,100607.69
2023-01-07T06:31:33.059Z,100606.44
2023-01-07T06:34:00.951Z,100607.56
2023-01-07T06:36:28.739Z,100600.72
2023-01-07T06:38:56.477Z,100606.19
2023-01-07T06:41:24.525Z,100598.88
2023-01-07T06:43:52.326Z,100607.91
2023-01-07T06:46:20.241Z,100603.25
2023-01-07T06:48:47.957Z,100605.09
2023-01-07T06:51:15.725Z,100604.59
2023-01-07T06:53:43.558Z,100605.25
2023-01-07T06:56:11.260Z,100599.41
2023-01-07T06:58:38.958Z,100591.03
2023-01-07T07:01:06.689Z,100584.59
2023-01-07T07:03:34.465Z,100593.16
2023-01-07T07:06:02.333Z,100591.03
2023-01-07T07:08:30.086Z,100585.09
2023-01-07T07:10:57.908Z,100594.75
2023-01-07T07:13:25.595Z,100586.31
2023-01-07T07:15:53.374Z,100587.31
2023-01-07T07:18:21.310Z,100584.28
2023-01-07T07:20:49.071Z,100588.22
2023-01-07T07:23:16.816Z,100592.63
2023-01-07T07:25:44.571Z,100590.63
2023-01-07T07:28:12.340Z,100600.59
2023-01-07T07:30:46.364Z,100594.28
2023-01-07T07:33:18.962Z,100595.75
2023-01-07T07:35:47.083Z,100604.38
2023-01-07T07:38:14.998Z,100605.50
2023-01-07T07:40:44.212Z,100602.19
2023-01-07T07:43:12.978Z,100603.06
2023-01-07T07:45:41.010Z,100596.47
2023-01-07T07:48:08.837Z,100597.53
2023-01-07T07:50:36.613Z,100606.56
2023-01-07T07:53:04.524Z,100604.56
2023-01-07T07:55:32.257Z,100607.03
2023-01-07T07:57:59.959Z,100605.31
2023-01-07T08:00:27.807Z,100605.44
2023-01-07T08:02:55.668Z,100609.69
2023-01-07T08:05:23.503Z,100601.56
2023-01-07T08:07:51.831Z,100596.69
2023-01-07T08:10:20.568Z,100602.59
2023-01-07T08:12:48.324Z,100606.53
2023-01-07T08:15:16.064Z,100599.56
2023-01-07T08:17:43.759Z,100599.25
2023-01-07T08:20:11.481Z,100605.94
2023-01-07T08:22:39.192Z,100589.91
2023-01-07T08:25:09.480Z,100589.09
2023-01-07T08:27:37.195Z,100596.38
2023-01-07T08:30:04.947Z,100603.09
2023-01-07T08:32:32.641Z,100595.06
2023-01-07T08:35:00.343Z,100603.34
2023-01-07T08:37:28.054Z,100605.94
2023-01-07T08:39:55.800Z,100603.31
2023-01-07T08:42:23.532Z,100604.59
2023-01-07T08:44:51.289Z,100598.41
2023-01-07T08:47:19.023Z,100603.44
2023-01-07T08:49:46.757Z,100596.06
2023-01-07T08:52:14.530Z,100597.19
2023-01-07T08:54:42.271Z,100598.03
2023-01-07T08:57:10.323Z,100591.41
2023-01-07T08:59:39.810Z,100596.16
2023-01-07T09:02:07.709Z,100595.81
2023-01-07T09:04:35.511Z,100582.84
2023-01-07T09:07:03.256Z,100584.72
2023-01-07T09:09:30.998Z,100582.34
2023-01-07T09:11:58.716Z,100585.63
2023-01-07T09:14:26.419Z,100581.31
2023-01-07T09:16:54.141Z,100581.34
2023-01-07T09:19:21.947Z,100583.38
2023-01-07T09:21:51.307Z,100580.44
2023-01-07T09:24:20.269Z,100575.25
2023-01-07T09:26:48.042Z,100572.13
2023-01-07T09:29:15.968Z,100578.88
2023-01-07T09:31:43.852Z,100582.22
2023-01-07T09:34:11.696Z,100587.13
2023-01-07T09:36:39.423Z,100581.47
2023-01-07T09:39:07.190Z,100582.38
2023-01-07T09:41:34.912Z,100578.53
2023-01-07T09:44:04.774Z,100570.09
2023-01-07T09:46:32.555Z,100573.88
2023-01-07T09:49:00.302Z,100567.47
2023-01-07T09:51:28.005Z,100564.91
2023-01-07T09:53:55.803Z,100573.28
2023-01-07T09:56:23.643Z,100565.19
2023-01-07T09:58:51.339Z,100562.81
2023-01-07T10:01:19.182Z,100560.63
2023-01-07T10:03:52.012Z,100569.41
2023-01-07T10:06:38.466Z,100559.19
2023-01-07T10:09:10.350Z,100553.78
2023-01-07T10:11:38.266Z,100548.56
2023-01-07T10:14:06.083Z,100544.75
2023-01-07T10:16:33.990Z,100539.88
2023-01-07T10:19:03.825Z,100536.28
2023-01-07T10:21:31.692Z,100538.31
2023-01-07T10:24:03.224Z,100526.03
2023-01-07T10:26:30.995Z,100523.28
2023-01-07T10:28:58.868Z,100515.00
2023-01-07T10:31:26.671Z,100520.44
2023-01-07T10:33:55.821Z,100517.84
2023-01-07T10:36:23.727Z,100517.34
2023-01-07T10:38:51.972Z,100508.41
2023-01-07T10:41:19.848Z,100516.56
2023-01-07T10:43:47.673Z,100510.19
2023-01-07T10:46:15.534Z,100512.00
2023-01-07T10:48:43.464Z,100500.16
2023-01-07T10:51:11.385Z,100499.06
2023-01-07T10:53:39.145Z,100489.78
2023-01-07T10:56:06.959Z,100497.69
2023-01-07T10:58:34.820Z,100488.41
2023-01-07T11:01:02.693Z,100482.28
2023-01-07T11:03:30.571Z,100471.94
2023-01-07T11:05:58.428Z,100478.81
2023-01-07T11:08:26.224Z,100472.03
2023-01-07T11:10:54.001Z,100469.69
2023-01-07T11:13:21.809Z,100468.19
2023-01-07T11:15:49.662Z,100471.16
2023-01-07T11:18:17.584Z,100463.31
2023-01-07T11:20:45.423Z,100460.97
2023-01-07T11:23:13.286Z,100457.59
2023-01-07T11:25:41.104Z,100447.25
2023-01-07T11:28:12.585Z,100454.59
2023-01-07T11:30:40.408Z,100450.56
2023-01-07T11:33:09.147Z,100459.16
2023-01-07T11:35:37.679Z,100455.75
2023-01-07T11:38:05.444Z,100451.31
2023-01-07T11:40:33.315Z,100454.44
2023-01-07T11:43:01.099Z,100434.69
2023-01-07T11:45:29.026Z,100444.97
2023-01-07T11:47:56.839Z,100444.31
2023-01-07T11:50:24.668Z,100441.75
2023-01-07T11:52:52.518Z,100437.34
2023-01-07T11:55:20.331Z,100430.38
2023-01-07T12:00:43.939Z,100414.78
2023-01-07T12:03:11.875Z,100407.63
2023-01-07T12:05:39.646Z,100420.59
2023-01-07T12:08:07.677Z,100423.72
2023-01-07T12:10:35.477Z,100422.88
2023-01-07T12:13:03.266Z,100421.22
2023-01-07T12:15:31.090Z,100419.72
2023-01-07T12:17:58.830Z,100413.59
2023-01-07T12:20:26.635Z,100408.31
2023-01-07T12:22:59.026Z,100400.34
2023-01-07T12:25:26.966Z,100394.03
2023-01-07T12:27:54.707Z,100395.06
2023-01-07T12:30:22.508Z,100386.03
2023-01-07T12:32:50.333Z,100382.47
2023-01-07T12:35:18.453Z,100380.97
2023-01-07T12:37:46.248Z,100363.09
2023-01-07T12:40:14.060Z,100367.72
2023-01-07T12:42:41.882Z,100362.06
2023-01-07T12:45:09.690Z,100357.78
2023-01-07T12:47:37.432Z,100353.84
2023-01-07T12:50:05.419Z,100354.06
2023-01-07T12:52:33.250Z,100355.53
2023-01-07T12:55:01.119Z,100339.75
2023-01-07T12:57:28.968Z,100342.59
2023-01-07T12:59:56.738Z,100348.81
2023-01-07T13:02:24.522Z,100342.28
2023-01-07T13:04:52.510Z,100333.50
2023-01-07T13:07:20.285Z,100330.53
2023-01-07T13:09:48.142Z,100334.03
2023-01-07T13:12:41.497Z,100338.97
2023-01-07T13:15:10.664Z,100326.22
2023-01-07T13:17:38.336Z,100323.38
2023-01-07T13:20:06.096Z,100317.28
2023-01-07T13:22:33.842Z,100316.63
2023-01-07T13:25:01.559Z,100310.00
2023-01-07T13:27:29.335Z,100305.97
2023-01-07T13:29:58.517Z,100303.69
2023-01-07T13:32:26.341Z,100296.38
2023-01-07T13:34:54.081Z,100291.47
2023-01-07T13:37:21.870Z,100290.03
2023-01-07T13:39:49.667Z,100290.06
2023-01-07T13:42:17.939Z,100278.59
2023-01-07T13:44:45.667Z,100281.38
2023-01-07T13:47:13.507Z,100279.28
2023-01-07T13:49:56.370Z,100284.75
2023-01-07T13:52:24.993Z,100270.97
2023-01-07T13:54:52.805Z,100271.91
2023-01-07T13:57:20.540Z,100263.69
2023-01-07T13:59:48.224Z,100258.78
2023-01-07T14:02:16.064Z,100264.41
2023-01-07T14:04:44.550Z,100268.66
2023-01-07T14:07:12.269Z,100269.69
2023-01-07T14:09:40.007Z,100262.25
2023-01-07T14:12:07.752Z,100258.53
2023-01-07T14:14:35.520Z,100259.69
2023-01-07T14:17:03.241Z,100260.41
2023-01-07T14:19:30.971Z,100254.56
2023-01-07T14:21:58.821Z,100256.69
2023-01-07T14:24:26.594Z,100250.38
2023-01-07T14:26:54.313Z,100257.16
2023-01-07T14:29:22.022Z,100250.00
2023-01-07T14:31:50.856Z,100249.34
2023-01-07T14:34:18.616Z,100243.84
2023-01-07T14:36:46.383Z,100246.16
2023-01-07T14:39:14.088Z,100249.56
2023-01-07T14:41:41.873Z,100245.13
2023-01-07T14:44:09.667Z,100243.22
2023-01-07T14:46:37.402Z,100236.69
2023-01-07T14:49:05.496Z,100237.31
2023-01-07T14:51:33.279Z,100230.16
2023-01-07T14:54:01.047Z,100240.06
2023-01-07T14:56:28.758Z,100233.06
2023-01-07T14:58:57.301Z,100242.31
2023-01-07T15:01:25.278Z,100232.63
2023-01-07T15:03:53.087Z,100227.13
2023-01-07T15:06:20.866Z,100225.44
2023-01-07T15:09:05.871Z,100226.44
2023-01-07T15:11:51.068Z,100223.34
2023-01-07T15:14:36.355Z,100221.00
2023-01-07T15:17:04.097Z,100208.50
2023-01-07T15:19:31.841Z,100214.81
2023-01-07T15:21:59.608Z,100230.81
2023-01-07T15:24:27.333Z,100217.31
2023-01-07T15:26:55.061Z,100219.69
2023-01-07T15:29:22.834Z,100216.47
2023-01-07T15:31:50.609Z,100217.97
2023-01-07T15:34:18.319Z,100218.94
2023-01-07T15:36:46.058Z,100225.13
2023-01-07T15:39:13.743Z,100221.00
2023-01-07T15:41:41.461Z,100217.88
2023-01-07T15:44:09.639Z,100210.09
2023-01-07T15:46:37.421Z,100216.88
2023-01-07T15:49:05.214Z,100209.53
2023-01-07T15:51:32.963Z,100197.81
2023-01-07T15:54:01.874Z,100201.88
2023-01-07T15:56:29.550Z,100197.75
2023-01-07T15:58:57.278Z,100196.88
2023-01-07T16:01:25.091Z,100187.97
2023-01-07T16:03:52.917Z,100190.50
2023-01-07T16:06:20.656Z,100185.44
2023-01-07T16:08:48.391Z,100191.88
2023-01-07T16:11:16.109Z,100180.19
2023-01-07T16:13:43.833Z,100176.91
2023-01-07T16:16:11.554Z,100169.13
2023-01-07T16:18:41.264Z,100172.25
2023-01-07T16:21:08.982Z,100161.16
2023-01-07T16:23:36.799Z,100159.09
2023-01-07T16:26:04.512Z,100157.00
2023-01-07T16:28:32.253Z,100158.88
2023-01-07T16:31:00.162Z,100152.88
2023-01-07T16:33:27.945Z,100151.53
2023-01-07T16:35:55.639Z,100152.25
2023-01-07T16:38:23.394Z,100154.19
2023-01-07T16:40:51.288Z,100156.59
2023-01-07T16:43:18.992Z,100152.38
2023-01-07T16:45:46.710Z,100146.34
2023-01-07T16:48:14.441Z,100138.13
2023-01-07T16:50:42.192Z,100143.19
2023-01-07T16:53:10.415Z,100145.94
2023-01-07T16:55:38.159Z,100149.94
2023-01-07T16:58:05.870Z,100149.34
2023-01-07T17:00:33.652Z,100133.31
2023-01-07T17:03:01.416Z,100130.56
2023-01-07T17:05:29.167Z,100128.88
2023-01-07T17:08:05.111Z,100128.47
2023-01-07T17:10:35.190Z,100131.63
2023-01-07T17:13:03.062Z,100121.53
2023-01-07T17:15:30.838Z,100109.53
2023-01-07T17:17:58.681Z,100110.38
2023-01-07T17:20:27.727Z,100103.44
2023-01-07T17:22:55.465Z,100100.28
2023-01-07T17:25:24.490Z,100104.28
2023-01-07T17:27:52.271Z,100108.03
2023-01-07T17:30:20.069Z,100101.88
2023-01-07T17:32:48.304Z,100095.50
2023-01-07T17:35:16.145Z,100103.03
2023-01-07T17:37:43.916Z,100084.84
2023-01-07T17:40:11.660Z,100088.81
2023-01-07T17:42:56.780Z,100095.41
2023-01-07T17:45:24.523Z,100082.16
2023-01-07T17:47:52.870Z,100086.22
2023-01-07T17:50:20.638Z,100086.38
2023-01-07T17:52:48.377Z,100087.06
2023-01-07T17:55:16.249Z,100075.47
2023-01-07T17:57:44.033Z,100072.41
2023-01-07T18:00:11.764Z,100064.34
2023-01-07T18:02:39.625Z,100067.75
2023-01-07T18:05:07.435Z,100065.38
2023-01-07T18:07:35.171Z,100063.63
2023-01-07T18:10:02.954Z,100067.81
2023-01-07T18:12:34.542Z,100061.09
2023-01-07T18:15:02.366Z,100057.53
2023-01-07T18:17:30.105Z,100056.75
2023-01-07T18:19:57.866Z,100047.59
2023-01-07T18:22:26.364Z,100058.88
2023-01-07T18:24:54.161Z,100050.84
2023-01-07T18:27:22.580Z,100056.88
2023-01-07T18:29:50.315Z,100052.63
2023-01-07T18:32:18.051Z,100042.63
2023-01-07T18:34:45.840Z,100045.63
2023-01-07T18:37:14.957Z,100038.22
2023-01-07T18:39:42.663Z,100045.28
2023-01-07T18:42:10.463Z,100047.28
2023-01-07T18:44:38.224Z,100040.16
2023-01-07T18:47:05.966Z,100047.91
2023-01-07T18:49:33.692Z,100046.38
2023-01-07T18:52:01.455Z,100039.38
2023-01-07T18:54:30.877Z,100038.22
2023-01-07T18:56:58.665Z,100037.88
2023-01-07T18:59:26.489Z,100040.06
2023-01-07T19:01:58.039Z,100041.78
2023-01-07T19:04:26.030Z,100034.28
2023-01-07T19:06:53.868Z,100032.41
2023-01-07T19:09:23.076Z,100036.88
2023-01-07T19:11:50.885Z,100028.69
2023-01-07T19:14:18.666Z,100016.28
2023-01-07T19:16:46.411Z,100034.00
2023-01-07T19:19:14.412Z,100028.72
2023-01-07T19:21:42.766Z,100036.09
2023-01-07T19:24:10.537Z,100031.25
2023-01-07T19:26:38.376Z,100031.22
2023-01-07T19:29:06.192Z,100028.72
2023-01-07T19:31:34.174Z,100013.38
2023-01-07T19:34:02.924Z,100020.34
2023-01-07T19:36:30.686Z,100019.50
2023-01-07T19:38:58.537Z,100018.44
2023-01-07T19:41:26.522Z,100011.38
2023-01-07T19:43:54.293Z,100011.13
2023-01-07T19:46:22.118Z,100012.28
2023-01-07T19:48:50.062Z,100010.34
2023-01-07T19:51:17.809Z,100017.28
2023-01-07T19:53:47.748Z,100019.22
2023-01-07T19:56:15.571Z,100009.91
2023-01-07T19:58:43.303Z,100007.72
2023-01-07T20:01:11.148Z,100006.81
2023-01-07T20:03:39.182Z,99999.84
2023-01-07T20:06:06.948Z,99990.38
2023-01-07T20:08:35.283Z,99992.59
2023-01-07T20:11:03.027Z,99995.19
2023-01-07T20:13:30.793Z,99984.94
2023-01-07T20:15:58.677Z,99989.03
2023-01-07T20:18:26.545Z,99976.66
2023-01-07T20:20:54.385Z,99978.09
2023-01-07T20:23:22.173Z,99962.50
2023-01-07T20:25:50.068Z,99963.63
2023-01-07T20:28:17.889Z,99954.50
2023-01-07T20:30:45.671Z,99951.66
2023-01-07T20:33:13.430Z,99954.25
2023-01-07T20:35:43.257Z,99960.81
2023-01-07T20:38:11.494Z,99957.94
2023-01-07T20:40:39.190Z,99955.63
2023-01-07T20:43:07.067Z,99951.66
2023-01-07T20:45:37.361Z,99944.97
2023-01-07T20:48:05.923Z,99936.78
2023-01-07T20:50:35.739Z,99942.63
2023-01-07T20:53:03.467Z,99937.16
2023-01-07T20:55:31.174Z,99946.00
2023-01-07T20:57:58.924Z,99943.91
2023-01-07T21:00:26.708Z,99926.69
2023-01-07T21:02:54.498Z,99929.66
2023-01-07T21:05:24.460Z,99920.41
2023-01-07T21:07:52.218Z,99915.13
2023-01-07T21:10:19.966Z,99919.97
2023-01-07T21:12:47.740Z,99920.22
2023-01-07T21:15:15.521Z,99913.47
2023-01-07T21:17:43.239Z,99917.91
2023-01-07T21:20:10.960Z,99911.19
2023-01-07T21:22:39.161Z,99898.56
2023-01-07T21:25:09.307Z,99903.84
2023-01-07T21:27:37.047Z,99901.72
2023-01-07T21:30:06.105Z,99899.63
2023-01-07T21:32:33.955Z,99905.69
2023-01-07T21:35:01.689Z,99892.47
2023-01-07T21:37:29.499Z,99885.75
2023-01-07T21:39:57.257Z,99879.66
2023-01-07T21:42:24.948Z,99868.28
2023-01-07T21:44:52.715Z,99868.69
2023-01-07T21:47:20.392Z,99872.69
2023-01-07T21:49:49.658Z,99867.00
2023-01-07T21:52:17.382Z,99859.47
2023-01-07T21:54:45.111Z,99862.38
2023-01-07T21:57:12.824Z,99857.34
2023-01-07T21:59:40.515Z,99857.78
2023-01-07T22:02:08.458Z,99858.16
2023-01-07T22:04:40.448Z,99860.47
2023-01-07T22:07:08.190Z,99861.09
2023-01-07T22:09:36.038Z,99877.06
2023-01-07T22:12:03.798Z,99880.41
2023-01-07T22:14:31.574Z,99874.53
2023-01-07T22:16:59.346Z,99869.47
2023-01-07T22:19:28.589Z,99863.38
2023-01-07T22:21:56.392Z,99871.56
2023-01-07T22:24:24.129Z,99872.81
2023-01-07T22:26:52.764Z,99865.03
2023-01-07T22:29:20.455Z,99860.63
2023-01-07T22:31:50.952Z,99860.84
2023-01-07T22:34:18.995Z,99860.19
2023-01-07T22:36:46.774Z,99852.22
2023-01-07T22:39:14.438Z,99861.44
2023-01-07T22:41:42.139Z,99858.91
2023-01-07T22:44:10.332Z,99858.09
2023-01-07T22:46:38.016Z,99861.22
2023-01-07T22:49:05.696Z,99864.78
2023-01-07T22:51:33.417Z,99857.84
2023-01-07T22:54:01.346Z,99855.97
2023-01-07T22:56:29.201Z,99853.47
2023-01-07T22:58:56.918Z,99852.81
2023-01-07T23:01:24.732Z,99841.06
2023-01-07T23:03:52.644Z,99843.81
2023-01-07T23:06:20.493Z,99845.88
2023-01-07T23:08:48.211Z,99845.88
2023-01-07T23:11:36.244Z,99834.97
2023-01-07T23:14:04.035Z,99834.56
2023-01-07T23:16:31.864Z,99835.38
2023-01-07T23:18:59.604Z,99828.03
2023-01-07T23:21:28.200Z,99828.22
2023-01-07T23:23:55.924Z,99822.78
2023-01-07T23:26:23.625Z,99823.63
2023-01-07T23:28:51.348Z,99822.16
2023-01-07T23:31:19.125Z,99812.25
2023-01-07T23:33:47.243Z,99805.81
2023-01-07T23:36:14.951Z,99787.94
2023-01-07T23:38:42.693Z,99788.75
2023-01-07T23:41:10.372Z,99783.50
2023-01-07T23:43:38.227Z,99777.22
2023-01-07T23:46:06.145Z,99768.19
2023-01-07T23:48:33.938Z,99761.91
2023-01-07T23:51:01.848Z,99751.00
2023-01-07T23:53:29.606Z,99746.56
2023-01-07T23:55:57.386Z,99738.38
2023-01-07T23:58:25.169Z,99753.91
